createdAt,value
2023-05-06T00:00:48.169Z,10.44
2023-05-06T00:03:17.235Z,10.44
2023-05-06T00:05:46.261Z,10.43
2023-05-06T00:08:15.020Z,10.40
2023-05-06T00:10:43.718Z,10.39
2023-05-06T00:13:12.981Z,10.38
2023-05-06T00:15:41.793Z,10.37
2023-05-06T00:18:10.542Z,10.38
2023-05-06T00:20:39.219Z,10.38
2023-05-06T00:23:07.881Z,10.37
2023-05-06T00:25:36.525Z,10.35
2023-05-06T00:28:05.351Z,10.34
2023-05-06T00:30:34.012Z,10.33
2023-05-06T00:33:03.068Z,10.32
2023-05-06T00:35:31.862Z,10.30
2023-05-06T00:38:09.127Z,10.30
2023-05-06T00:40:38.305Z,10.30
2023-05-06T00:43:07.571Z,10.30
2023-05-06T00:45:36.911Z,10.28
2023-05-06T00:48:07.404Z,10.27
2023-05-06T00:50:38.622Z,10.27
2023-05-06T00:53:09.674Z,10.27
2023-05-06T00:55:39.704Z,10.27
2023-05-06T00:58:08.861Z,10.28
2023-05-06T01:00:37.575Z,10.27
2023-05-06T01:03:06.582Z,10.25
2023-05-06T01:05:46.111Z,10.25
2023-05-06T01:08:29.770Z,10.24
2023-05-06T01:11:05.677Z,10.23
2023-05-06T01:13:37.905Z,10.25
2023-05-06T01:16:08.910Z,10.25
2023-05-06T01:18:38.550Z,10.25
2023-05-06T01:21:07.764Z,10.24
2023-05-06T01:24:00.018Z,10.23
2023-05-06T01:26:28.883Z,10.21
2023-05-06T01:28:58.581Z,10.20
2023-05-06T01:31:32.272Z,10.21
2023-05-06T01:34:18.252Z,10.20
2023-05-06T01:37:12.552Z,10.19
2023-05-06T01:39:43.258Z,10.18
2023-05-06T01:42:13.908Z,10.17
2023-05-06T01:44:43.830Z,10.15
2023-05-06T01:47:13.958Z,10.13
2023-05-06T01:49:42.868Z,10.12
2023-05-06T01:52:11.512Z,10.11
2023-05-06T01:54:40.180Z,10.11
2023-05-06T01:57:08.886Z,10.08
2023-05-06T01:59:37.569Z,10.08
2023-05-06T02:02:06.836Z,10.05
2023-05-06T02:04:35.914Z,10.05
2023-05-06T02:07:05.027Z,10.05
2023-05-06T02:09:33.699Z,10.03
2023-05-06T02:12:02.373Z,10.03
2023-05-06T02:14:31.071Z,10.02
2023-05-06T02:17:04.817Z,10.02
2023-05-06T02:19:34.443Z,10.02
2023-05-06T02:22:03.821Z,10.01
2023-05-06T02:24:32.479Z,10.00
2023-05-06T02:27:02.330Z,10.02
2023-05-06T02:29:30.991Z,10.00
2023-05-06T02:31:59.853Z,9.99
2023-05-06T02:34:28.573Z,9.99
2023-05-06T02:36:57.476Z,10.00
2023-05-06T02:39:26.121Z,10.14
2023-05-06T02:41:54.784Z,11.95
2023-05-06T02:44:23.449Z,14.02
2023-05-06T02:46:52.102Z,14.82
2023-05-06T02:49:20.775Z,14.13
2023-05-06T02:51:49.392Z,13.17
2023-05-06T02:54:18.038Z,12.48
2023-05-06T02:56:46.777Z,11.93
2023-05-06T02:59:17.095Z,11.52
2023-05-06T03:01:46.163Z,11.20
2023-05-06T03:04:14.932Z,10.95
2023-05-06T03:06:43.686Z,10.75
2023-05-06T03:09:12.317Z,10.62
2023-05-06T03:11:41.127Z,10.49
2023-05-06T03:14:09.945Z,10.41
2023-05-06T03:16:38.728Z,10.33
2023-05-06T03:19:07.516Z,10.26
2023-05-06T03:21:36.163Z,10.21
2023-05-06T03:24:05.191Z,10.13
2023-05-06T03:26:33.908Z,10.06
2023-05-06T03:29:02.661Z,10.00
2023-05-06T03:31:31.982Z,10.38
2023-05-06T03:34:00.633Z,12.54
2023-05-06T03:36:29.561Z,14.51
2023-05-06T03:38:58.221Z,15.36
2023-05-06T03:41:26.955Z,14.58
2023-05-06T03:43:55.895Z,13.49
2023-05-06T03:46:24.594Z,12.63
2023-05-06T03:48:53.288Z,12.00
2023-05-06T03:51:22.368Z,11.53
2023-05-06T03:53:52.965Z,11.17
2023-05-06T03:56:24.056Z,10.89
2023-05-06T03:58:54.385Z,10.67
2023-05-06T04:01:23.059Z,10.48
2023-05-06T04:03:52.863Z,10.33
2023-05-06T04:06:21.584Z,10.22
2023-05-06T04:08:50.226Z,10.12
2023-05-06T04:11:18.890Z,10.04
2023-05-06T04:13:47.599Z,10.32
2023-05-06T04:16:16.515Z,12.46
2023-05-06T04:18:46.200Z,14.57
2023-05-06T04:21:15.497Z,14.81
2023-05-06T04:23:44.450Z,13.89
2023-05-06T04:26:13.113Z,13.02
2023-05-06T04:28:41.804Z,12.34
2023-05-06T04:31:10.838Z,11.83
2023-05-06T04:33:39.591Z,11.43
2023-05-06T04:36:09.065Z,11.12
2023-05-06T04:38:37.830Z,10.89
2023-05-06T04:41:06.511Z,10.71
2023-05-06T04:43:35.184Z,10.55
2023-05-06T04:46:03.887Z,10.44
2023-05-06T04:48:32.665Z,10.37
2023-05-06T04:51:01.387Z,11.50
2023-05-06T04:53:30.031Z,13.80
2023-05-06T04:55:58.757Z,14.84
2023-05-06T04:58:27.419Z,14.12
2023-05-06T05:00:57.347Z,13.17
2023-05-06T05:03:26.337Z,12.45
2023-05-06T05:05:55.274Z,11.89
2023-05-06T05:08:23.912Z,11.47
2023-05-06T05:10:52.547Z,11.12
2023-05-06T05:13:21.583Z,10.86
2023-05-06T05:15:50.314Z,10.65
2023-05-06T05:18:19.071Z,10.93
2023-05-06T05:20:47.807Z,13.02
2023-05-06T05:23:16.463Z,14.77
2023-05-06T05:25:45.158Z,15.56
2023-05-06T05:28:13.814Z,14.76
2023-05-06T05:30:42.484Z,13.71
2023-05-06T05:33:11.287Z,12.85
2023-05-06T05:35:40.061Z,12.20
2023-05-06T05:38:09.011Z,11.67
2023-05-06T05:40:37.652Z,11.25
2023-05-06T05:43:06.318Z,11.35
2023-05-06T05:45:35.036Z,13.29
2023-05-06T05:48:04.182Z,15.11
2023-05-06T05:50:32.937Z,15.75
2023-05-06T05:53:01.582Z,14.84
2023-05-06T05:55:30.706Z,13.71
2023-05-06T05:57:59.437Z,12.82
2023-05-06T06:00:28.118Z,12.20
2023-05-06T06:02:56.838Z,11.98
2023-05-06T06:05:25.803Z,13.70
2023-05-06T06:07:54.452Z,15.46
2023-05-06T06:10:23.114Z,16.02
2023-05-06T06:12:51.787Z,15.10
2023-05-06T06:15:21.506Z,13.96
2023-05-06T06:17:50.332Z,13.05
2023-05-06T06:20:19.336Z,12.34
2023-05-06T06:22:47.999Z,11.79
2023-05-06T06:25:16.822Z,11.81
2023-05-06T06:27:45.622Z,13.65
2023-05-06T06:30:14.365Z,15.37
2023-05-06T06:32:51.693Z,15.97
2023-05-06T06:35:20.616Z,14.93
2023-05-06T06:37:49.307Z,13.72
2023-05-06T06:40:18.113Z,12.83
2023-05-06T06:42:47.818Z,12.15
2023-05-06T06:45:16.869Z,12.26
2023-05-06T06:47:45.769Z,14.23
2023-05-06T06:50:14.985Z,15.77
2023-05-06T06:52:43.676Z,16.33
2023-05-06T06:55:12.625Z,15.39
2023-05-06T06:57:41.609Z,14.16
2023-05-06T07:00:10.868Z,13.22
2023-05-06T07:02:39.630Z,12.49
2023-05-06T07:05:08.933Z,12.64
2023-05-06T07:07:37.865Z,14.50
2023-05-06T07:10:07.111Z,15.80
2023-05-06T07:12:35.811Z,15.62
2023-05-06T07:15:06.943Z,14.44
2023-05-06T07:17:35.758Z,13.40
2023-05-06T07:20:04.955Z,12.63
2023-05-06T07:22:33.666Z,12.91
2023-05-06T07:25:02.331Z,14.72
2023-05-06T07:27:31.047Z,15.98
2023-05-06T07:30:00.353Z,15.88
2023-05-06T07:32:29.158Z,14.68
2023-05-06T07:34:57.820Z,13.60
2023-05-06T07:37:26.480Z,12.91
2023-05-06T07:39:57.514Z,13.95
2023-05-06T07:42:26.273Z,15.66
2023-05-06T07:44:55.564Z,16.08
2023-05-06T07:47:30.058Z,15.01
2023-05-06T07:49:59.944Z,13.80
2023-05-06T07:52:28.595Z,12.89
2023-05-06T07:54:57.281Z,12.66
2023-05-06T07:57:26.027Z,14.33
2023-05-06T07:59:54.740Z,15.89
2023-05-06T08:02:23.692Z,16.04
2023-05-06T08:04:53.095Z,14.81
2023-05-06T08:07:21.903Z,13.60
2023-05-06T08:09:50.597Z,12.68
2023-05-06T08:12:19.301Z,12.45
2023-05-06T08:14:47.927Z,14.14
2023-05-06T08:17:16.729Z,15.65
2023-05-06T08:19:45.488Z,16.19
2023-05-06T08:22:14.935Z,15.19
2023-05-06T08:24:43.767Z,13.99
2023-05-06T08:27:12.463Z,13.03
2023-05-06T08:29:41.134Z,12.30
2023-05-06T08:32:09.849Z,12.60
2023-05-06T08:34:38.717Z,14.53
2023-05-06T08:37:08.052Z,15.74
2023-05-06T08:39:36.802Z,15.95
2023-05-06T08:42:05.927Z,14.66
2023-05-06T08:44:34.648Z,13.48
2023-05-06T08:47:03.950Z,12.91
2023-05-06T08:49:32.733Z,14.32
2023-05-06T08:52:05.663Z,15.65
2023-05-06T08:54:35.990Z,15.93
2023-05-06T08:57:10.285Z,14.91
2023-05-06T08:59:42.244Z,13.64
2023-05-06T09:02:11.641Z,12.65
2023-05-06T09:04:41.137Z,12.45
2023-05-06T09:07:09.818Z,14.17
2023-05-06T09:09:38.488Z,15.68
2023-05-06T09:12:12.170Z,16.43
2023-05-06T09:14:42.141Z,15.64
2023-05-06T09:17:24.146Z,14.31
2023-05-06T09:19:54.820Z,13.24
2023-05-06T09:22:25.912Z,12.99
2023-05-06T09:24:58.273Z,14.75
2023-05-06T09:27:28.628Z,16.26
2023-05-06T09:30:12.227Z,16.16
2023-05-06T09:32:41.950Z,14.78
2023-05-06T09:35:11.785Z,13.70
2023-05-06T09:37:41.477Z,12.79
2023-05-06T09:40:10.957Z,12.65
2023-05-06T09:42:39.644Z,14.38
2023-05-06T09:45:08.973Z,15.86
2023-05-06T09:47:38.086Z,16.35
2023-05-06T09:50:09.261Z,15.30
2023-05-06T09:52:37.892Z,14.07
2023-05-06T09:55:07.380Z,13.54
2023-05-06T09:57:37.614Z,15.01
2023-05-06T10:00:09.448Z,16.46
2023-05-06T10:02:40.954Z,16.55
2023-05-06T10:05:12.573Z,15.28
2023-05-06T10:07:42.380Z,14.10
2023-05-06T10:10:12.285Z,13.20
2023-05-06T10:12:41.995Z,13.10
2023-05-06T10:15:11.273Z,14.88
2023-05-06T10:17:45.267Z,16.16
2023-05-06T10:20:15.083Z,16.70
2023-05-06T10:23:14.865Z,15.61
2023-05-06T10:25:45.824Z,14.04
2023-05-06T10:28:18.158Z,13.02
2023-05-06T10:31:00.014Z,12.81
2023-05-06T10:33:29.383Z,14.50
2023-05-06T10:36:18.331Z,15.84
2023-05-06T10:38:54.895Z,16.13
2023-05-06T10:41:26.156Z,14.83
2023-05-06T10:44:00.145Z,13.64
2023-05-06T10:46:30.110Z,12.69
2023-05-06T10:49:04.858Z,13.29
2023-05-06T10:51:36.473Z,15.18
2023-05-06T10:54:09.511Z,16.20
2023-05-06T10:56:50.998Z,15.54
2023-05-06T10:59:25.561Z,14.15
2023-05-06T11:02:09.156Z,13.06
2023-05-06T11:04:39.239Z,12.84
2023-05-06T11:07:23.052Z,14.56
2023-05-06T11:10:00.625Z,15.93
2023-05-06T11:12:52.837Z,15.89
2023-05-06T11:15:43.139Z,14.35
2023-05-06T11:18:24.260Z,13.03
2023-05-06T11:21:05.298Z,12.65
2023-05-06T11:23:52.393Z,14.46
2023-05-06T11:26:21.434Z,15.95
2023-05-06T11:28:51.251Z,15.91
2023-05-06T11:31:22.087Z,14.65
2023-05-06T11:33:53.206Z,13.43
2023-05-06T11:36:21.981Z,12.98
2023-05-06T11:38:56.407Z,14.48
2023-05-06T11:41:25.074Z,15.74
2023-05-06T11:43:53.783Z,16.21
2023-05-06T11:46:24.287Z,15.18
2023-05-06T11:48:52.970Z,13.86
2023-05-06T11:51:22.786Z,12.85
2023-05-06T11:53:53.155Z,12.54
2023-05-06T11:56:21.887Z,14.14
2023-05-06T11:58:52.154Z,15.59
2023-05-06T12:01:20.868Z,16.07
2023-05-06T12:03:49.698Z,15.00
2023-05-06T12:06:19.980Z,13.73
2023-05-06T12:08:48.688Z,12.68
2023-05-06T12:11:17.574Z,12.58
2023-05-06T12:13:46.347Z,14.13
2023-05-06T12:16:15.790Z,15.40
2023-05-06T12:18:44.874Z,15.97
2023-05-06T12:21:13.627Z,14.99
2023-05-06T12:23:56.419Z,13.60
2023-05-06T12:26:27.402Z,12.49
2023-05-06T12:29:08.075Z,12.49
2023-05-06T12:31:37.305Z,14.41
2023-05-06T12:34:06.288Z,15.76
2023-05-06T12:36:40.779Z,16.23
2023-05-06T12:39:11.868Z,15.15
2023-05-06T12:41:45.665Z,13.76
2023-05-06T12:44:33.421Z,12.69
2023-05-06T12:47:04.770Z,12.67
2023-05-06T12:49:51.784Z,14.63
2023-05-06T12:52:22.573Z,15.98
2023-05-06T12:54:53.032Z,15.54
2023-05-06T12:57:22.667Z,14.16
2023-05-06T12:59:51.430Z,13.01
2023-05-06T13:02:20.191Z,13.03
2023-05-06T13:04:49.367Z,14.78
2023-05-06T13:07:18.274Z,16.03
2023-05-06T13:09:47.009Z,16.19
2023-05-06T13:12:15.727Z,14.95
2023-05-06T13:14:44.421Z,13.68
2023-05-06T13:17:14.660Z,12.69
2023-05-06T13:19:43.457Z,12.81
2023-05-06T13:22:12.502Z,14.59
2023-05-06T13:24:41.583Z,15.84
2023-05-06T13:27:10.271Z,16.21
2023-05-06T13:29:39.061Z,15.07
2023-05-06T13:32:08.981Z,13.73
2023-05-06T13:34:37.928Z,13.11
2023-05-06T13:37:07.002Z,14.47
2023-05-06T13:39:36.104Z,15.79
2023-05-06T13:42:07.444Z,16.22
2023-05-06T13:44:37.057Z,15.06
2023-05-06T13:47:05.968Z,13.68
2023-05-06T13:49:35.280Z,13.04
2023-05-06T13:52:05.769Z,14.45
2023-05-06T13:54:36.843Z,15.63
2023-05-06T13:57:05.650Z,15.30
2023-05-06T13:59:34.341Z,14.05
2023-05-06T14:02:07.050Z,12.79
2023-05-06T14:04:37.698Z,12.51
2023-05-06T14:07:06.376Z,14.18
2023-05-06T14:09:35.573Z,15.58
2023-05-06T14:12:04.533Z,16.13
2023-05-06T14:14:33.183Z,15.14
2023-05-06T14:17:01.881Z,13.83
2023-05-06T14:19:30.591Z,12.81
2023-05-06T14:21:59.316Z,13.32
2023-05-06T14:24:27.980Z,14.97
2023-05-06T14:26:56.701Z,15.84
2023-05-06T14:29:25.761Z,16.09
2023-05-06T14:31:54.485Z,15.03
2023-05-06T14:34:23.286Z,13.71
2023-05-06T14:36:51.957Z,13.25
2023-05-06T14:39:20.635Z,14.75
2023-05-06T14:41:49.298Z,15.96
2023-05-06T14:44:17.959Z,16.34
2023-05-06T14:46:46.595Z,15.41
2023-05-06T14:49:15.421Z,13.99
2023-05-06T14:51:44.116Z,12.99
2023-05-06T14:54:12.899Z,13.83
2023-05-06T14:56:41.721Z,15.40
2023-05-06T14:59:10.521Z,16.08
2023-05-06T15:01:40.147Z,15.61
2023-05-06T15:04:10.670Z,14.22
2023-05-06T15:06:39.327Z,13.04
2023-05-06T15:09:08.930Z,12.95
2023-05-06T15:11:37.584Z,14.59
2023-05-06T15:14:06.302Z,15.86
2023-05-06T15:16:35.078Z,16.32
2023-05-06T15:19:04.327Z,15.54
2023-05-06T15:21:33.033Z,14.13
2023-05-06T15:24:01.832Z,13.01
2023-05-06T15:26:30.638Z,13.23
2023-05-06T15:28:59.316Z,14.84
2023-05-06T15:31:27.966Z,15.64
2023-05-06T15:33:58.775Z,15.88
2023-05-06T15:36:29.064Z,14.88
2023-05-06T15:39:00.695Z,13.59
2023-05-06T15:41:32.478Z,13.06
2023-05-06T15:44:02.755Z,14.53
2023-05-06T15:46:31.964Z,15.77
2023-05-06T15:51:32.644Z,15.12
2023-05-06T15:54:01.458Z,13.83
2023-05-06T15:56:35.055Z,13.26
2023-05-06T15:59:09.186Z,14.85
2023-05-06T16:04:09.698Z,16.34
2023-05-06T16:06:38.695Z,15.23
2023-05-06T16:09:08.871Z,13.85
2023-05-06T16:11:37.629Z,13.55
2023-05-06T16:14:06.279Z,15.16
2023-05-06T16:16:35.193Z,16.31
2023-05-06T16:19:04.335Z,15.67
2023-05-06T16:21:33.118Z,14.24
2023-05-06T16:24:02.523Z,13.02
2023-05-06T16:26:31.381Z,12.77
2023-05-06T16:29:01.624Z,14.41
2023-05-06T16:31:30.437Z,15.77
2023-05-06T16:33:59.311Z,16.04
2023-05-06T16:36:28.653Z,14.82
2023-05-06T16:38:57.433Z,13.54
2023-05-06T16:41:26.166Z,13.13
2023-05-06T16:43:54.847Z,14.78
2023-05-06T16:46:24.507Z,16.15
2023-05-06T16:48:53.880Z,16.32
2023-05-06T16:51:22.719Z,15.01
2023-05-06T16:53:51.447Z,13.72
2023-05-06T16:56:20.176Z,13.23
2023-05-06T16:58:48.824Z,14.81
2023-05-06T17:01:17.563Z,16.15
2023-05-06T17:03:46.237Z,15.95
2023-05-06T17:06:14.900Z,14.60
2023-05-06T17:08:43.981Z,13.31
2023-05-06T17:11:12.746Z,12.91
2023-05-06T17:13:41.561Z,14.54
2023-05-06T17:16:10.444Z,15.61
2023-05-06T17:18:39.102Z,16.03
2023-05-06T17:21:08.870Z,14.94
2023-05-06T17:23:37.490Z,13.48
2023-05-06T17:26:10.013Z,12.94
2023-05-06T17:28:39.378Z,14.61
2023-05-06T17:31:08.144Z,15.69
2023-05-06T17:33:36.851Z,15.31
2023-05-06T17:36:05.804Z,13.93
2023-05-06T17:38:34.444Z,12.70
2023-05-06T17:41:03.096Z,12.50
2023-05-06T17:43:33.609Z,14.27
2023-05-06T17:46:02.363Z,15.64
2023-05-06T17:48:31.118Z,16.01
2023-05-06T17:51:01.973Z,14.85
2023-05-06T17:53:33.316Z,13.51
2023-05-06T17:56:02.058Z,12.55
2023-05-06T17:58:30.920Z,13.38
2023-05-06T18:00:59.624Z,15.00
2023-05-06T18:03:28.398Z,15.96
2023-05-06T18:05:57.954Z,15.42
2023-05-06T18:08:26.737Z,14.00
2023-05-06T18:10:55.525Z,12.80
2023-05-06T18:13:24.378Z,12.50
2023-05-06T18:15:53.152Z,14.16
2023-05-06T18:18:21.822Z,15.51
2023-05-06T18:20:50.736Z,15.76
2023-05-06T18:23:19.394Z,14.58
2023-05-06T18:25:48.471Z,13.20
2023-05-06T18:28:17.164Z,12.22
2023-05-06T18:30:45.871Z,12.37
2023-05-06T18:33:14.584Z,14.47
2023-05-06T18:35:43.288Z,15.96
2023-05-06T18:38:13.403Z,15.91
2023-05-06T18:40:43.763Z,14.53
2023-05-06T18:43:12.602Z,13.23
2023-05-06T18:45:41.493Z,12.27
2023-05-06T18:48:10.995Z,12.73
2023-05-06T18:50:41.211Z,14.69
2023-05-06T18:53:09.873Z,15.83
2023-05-06T18:55:38.521Z,15.60
2023-05-06T18:58:07.344Z,14.25
2023-05-06T19:00:36.015Z,13.05
2023-05-06T19:03:04.726Z,12.97
2023-05-06T19:05:33.794Z,14.67
2023-05-06T19:08:05.155Z,15.92
2023-05-06T19:10:34.240Z,15.79
2023-05-06T19:13:04.998Z,14.57
2023-05-06T19:15:35.536Z,13.32
2023-05-06T19:18:05.011Z,12.91
2023-05-06T19:20:34.482Z,14.51
2023-05-06T19:23:04.844Z,15.89
2023-05-06T19:25:38.440Z,16.09
2023-05-06T19:28:07.378Z,14.73
2023-05-06T19:30:36.425Z,13.41
2023-05-06T19:33:05.334Z,12.90
2023-05-06T19:35:36.403Z,14.42
2023-05-06T19:38:09.152Z,15.77
2023-05-06T19:40:37.822Z,15.78
2023-05-06T19:43:07.109Z,14.46
2023-05-06T19:45:35.972Z,13.19
2023-05-06T19:48:05.399Z,12.79
2023-05-06T19:50:34.312Z,14.39
2023-05-06T19:53:03.575Z,15.57
2023-05-06T19:55:32.338Z,16.03
2023-05-06T19:58:02.264Z,14.97
2023-05-06T20:00:31.207Z,13.65
2023-05-06T20:03:00.688Z,13.07
2023-05-06T20:05:31.468Z,14.52
2023-05-06T20:08:00.398Z,15.89
2023-05-06T20:10:30.345Z,15.74
2023-05-06T20:12:59.097Z,14.43
2023-05-06T20:15:28.405Z,13.23
2023-05-06T20:17:57.136Z,12.89
2023-05-06T20:20:33.990Z,14.53
2023-05-06T20:23:03.286Z,15.88
2023-05-06T20:25:32.430Z,15.62
2023-05-06T20:28:01.964Z,14.35
2023-05-06T20:30:30.970Z,13.20
2023-05-06T20:33:00.268Z,12.91
2023-05-06T20:35:29.103Z,14.60
2023-05-06T20:37:57.765Z,15.92
2023-05-06T20:40:26.795Z,15.69
2023-05-06T20:42:56.053Z,14.35
2023-05-06T20:45:24.756Z,13.18
2023-05-06T20:47:53.436Z,12.84
2023-05-06T20:50:22.065Z,14.47
2023-05-06T20:52:51.174Z,15.83
2023-05-06T20:55:23.235Z,15.81
2023-05-06T20:57:52.234Z,14.50
2023-05-06T21:00:21.496Z,13.28
2023-05-06T21:02:50.242Z,12.89
2023-05-06T21:05:19.068Z,14.50
2023-05-06T21:07:47.729Z,15.83
2023-05-06T21:10:16.404Z,15.59
2023-05-06T21:12:49.681Z,14.27
2023-05-06T21:15:18.963Z,13.04
2023-05-06T21:17:47.993Z,12.67
2023-05-06T21:20:16.978Z,14.26
2023-05-06T21:22:45.672Z,15.55
2023-05-06T21:25:14.348Z,15.45
2023-05-06T21:27:43.063Z,14.12
2023-05-06T21:30:12.210Z,12.91
2023-05-06T21:32:41.026Z,12.59
2023-05-06T21:35:10.271Z,14.23
2023-05-06T21:37:39.186Z,15.61
2023-05-06T21:40:08.745Z,15.70
2023-05-06T21:42:37.610Z,14.42
2023-05-06T21:45:07.040Z,13.15
2023-05-06T21:47:36.020Z,12.68
2023-05-06T21:50:05.578Z,14.22
2023-05-06T21:52:34.187Z,15.59
2023-05-06T21:55:03.186Z,15.54
2023-05-06T21:57:32.779Z,14.22
2023-05-06T22:00:01.710Z,12.99
2023-05-06T22:02:30.484Z,12.56
2023-05-06T22:04:59.240Z,14.12
2023-05-06T22:07:27.897Z,15.48
2023-05-06T22:09:56.554Z,15.33
2023-05-06T22:12:25.536Z,14.03
2023-05-06T22:14:54.232Z,12.87
2023-05-06T22:17:23.344Z,12.46
2023-05-06T22:19:52.097Z,14.07
2023-05-06T22:22:21.723Z,15.48
2023-05-06T22:24:50.427Z,15.46
2023-05-06T22:27:19.098Z,14.18
2023-05-06T22:29:47.762Z,12.96
2023-05-06T22:32:16.406Z,12.51
2023-05-06T22:34:45.057Z,14.08
2023-05-06T22:37:14.014Z,15.47
2023-05-06T22:39:43.108Z,15.44
2023-05-06T22:42:11.735Z,14.17
2023-05-06T22:44:40.425Z,12.98
2023-05-06T22:47:09.261Z,12.52
2023-05-06T22:49:38.300Z,14.08
2023-05-06T22:52:07.065Z,15.46
2023-05-06T22:54:36.238Z,15.16
2023-05-06T22:57:04.894Z,13.84
2023-05-06T22:59:33.585Z,12.66
2023-05-06T23:02:03.103Z,12.27
2023-05-06T23:04:31.817Z,13.94
2023-05-06T23:07:00.541Z,15.36
2023-05-06T23:09:29.219Z,15.14
2023-05-06T23:11:57.884Z,13.80
2023-05-06T23:14:26.533Z,12.63
2023-05-06T23:16:55.854Z,12.23
2023-05-06T23:19:25.114Z,13.85
2023-05-06T23:21:53.822Z,15.23
2023-05-06T23:24:22.483Z,14.98
2023-05-06T23:26:52.123Z,13.68
2023-05-06T23:29:20.904Z,12.51
2023-05-06T23:31:49.557Z,12.13
2023-05-06T23:34:18.192Z,13.77
2023-05-06T23:36:46.910Z,15.17
2023-05-06T23:39:15.724Z,14.86
2023-05-06T23:41:44.383Z,13.56
2023-05-06T23:44:13.020Z,12.43
2023-05-06T23:46:41.833Z,12.08
2023-05-06T23:49:10.632Z,13.76
2023-05-06T23:51:39.412Z,15.17
2023-05-06T23:54:08.064Z,14.97
2023-05-06T23:56:36.727Z,13.65
2023-05-06T23:59:05.381Z,12.48
